Time;durP1;ratioP1;P1;durP2;ratioP2;P2;SDS_P1;SDS_P2;PMS_P1;PMS_P2;Temp;Humidity;BMP_temperature;BMP_pressure;BME280_temperature;BME280_humidity;BME280_pressure;Samples;Min_cycle;Max_cycle;Signal;HPM_P1;HPM_P2
2023/01/09 00:01:40;;;;;;;23.97;19.43;;;;;;;1.46;100.00;95558.53;5023362;28;20861;-70
2023/01/09 00:04:09;;;;;;;20.37;18.00;;;;;;;1.52;100.00;95554.44;5026056;28;20817;-72
2023/01/09 00:06:39;;;;;;;24.53;20.20;;;;;;;1.56;100.00;95532.25;5044068;28;20219;-70
2023/01/09 00:09:06;;;;;;;23.97;21.10;;;;;;;1.40;100.00;95528.69;5003453;28;20238;-73
2023/01/09 00:11:34;;;;;;;25.03;20.47;;;;;;;1.32;100.00;95525.28;5042793;28;20241;-73
2023/01/09 00:14:02;;;;;;;21.47;18.03;;;;;;;1.44;100.00;95514.34;5046419;28;20428;-72
2023/01/09 00:16:30;;;;;;;21.33;19.03;;;;;;;1.51;100.00;95517.06;5034269;28;20200;-71
2023/01/09 00:18:59;;;;;;;22.00;19.53;;;;;;;1.51;100.00;95513.66;5025901;28;20230;-71
2023/01/09 00:21:26;;;;;;;25.43;20.53;;;;;;;1.39;100.00;95487.09;5041305;28;20216;-72
2023/01/09 00:23:55;;;;;;;24.97;20.50;;;;;;;1.47;100.00;95483.66;5002689;28;20233;-70
2023/01/09 00:26:23;;;;;;;21.77;19.27;;;;;;;1.26;100.00;95483.22;5046535;28;21043;-71
2023/01/09 00:28:52;;;;;;;24.00;19.03;;;;;;;1.31;100.00;95477.50;4989318;28;20838;-72
2023/01/09 00:31:21;;;;;;;24.20;20.07;;;;;;;1.22;100.00;95474.13;5032173;28;20950;-71
2023/01/09 00:33:54;;;;;;;22.27;19.10;;;;;;;1.39;100.00;95476.66;5045845;28;20937;-71
2023/01/09 00:36:22;;;;;;;25.40;20.33;;;;;;;1.34;100.00;95474.56;5030672;28;20207;-70
2023/01/09 00:38:49;;;;;;;21.77;19.47;;;;;;;1.38;100.00;95480.25;5040701;28;20425;-71
2023/01/09 00:41:21;;;;;;;24.40;20.67;;;;;;;1.42;100.00;95478.94;5047346;28;20710;-70
2023/01/09 00:43:51;;;;;;;24.80;19.53;;;;;;;1.36;100.00;95477.84;4997025;28;20806;-71
2023/01/09 00:46:20;;;;;;;21.67;18.37;;;;;;;1.30;100.00;95457.59;5045029;28;20206;-69
2023/01/09 00:48:48;;;;;;;23.23;19.30;;;;;;;1.31;100.00;95467.06;5040192;28;20407;-70
2023/01/09 00:51:17;;;;;;;24.57;20.67;;;;;;;1.11;100.00;95475.28;5029703;28;20237;-69
2023/01/09 00:53:44;;;;;;;20.93;18.57;;;;;;;1.17;100.00;95476.41;5038232;28;20199;-71
2023/01/09 00:56:15;;;;;;;24.00;19.73;;;;;;;1.22;100.00;95462.84;5049245;28;20209;-71
2023/01/09 00:58:44;;;;;;;21.80;19.37;;;;;;;1.28;100.00;95477.84;5043734;28;20215;-71
2023/01/09 01:01:12;;;;;;;22.70;18.90;;;;;;;1.30;100.00;95473.25;5006428;28;20242;-73
2023/01/09 01:03:40;;;;;;;21.60;18.57;;;;;;;1.43;100.00;95463.13;5033002;28;20508;-71
2023/01/09 01:08:54;;;;;;;22.50;19.67;;;;;;;1.49;100.00;95455.59;5042477;28;20433;-72
2023/01/09 01:11:22;;;;;;;23.33;20.37;;;;;;;1.55;100.00;95452.28;5040826;28;20701;-71
2023/01/09 01:13:51;;;;;;;25.50;19.83;;;;;;;1.49;100.00;95439.94;5041491;28;20905;-71
2023/01/09 01:16:19;;;;;;;21.93;19.50;;;;;;;1.43;100.00;95441.41;4999444;28;20594;-70
2023/01/09 01:18:46;;;;;;;23.23;19.53;;;;;;;1.33;100.00;95444.25;5038957;28;20214;-72
2023/01/09 01:21:14;;;;;;;23.63;19.50;;;;;;;1.23;100.00;95443.59;5043003;28;20211;-71
2023/01/09 01:23:42;;;;;;;26.33;20.83;;;;;;;1.26;100.00;95448.47;5023439;28;20298;-71
2023/01/09 01:26:12;;;;;;;22.63;20.23;;;;;;;1.24;100.00;95450.44;5046791;28;20867;-71
2023/01/09 01:28:40;;;;;;;22.80;19.10;;;;;;;1.28;100.00;95433.47;5038888;28;20254;-71
2023/01/09 01:31:15;;;;;;;24.33;20.33;;;;;;;1.25;100.00;95437.25;4999680;28;20918;-72
2023/01/09 01:33:43;;;;;;;22.87;20.37;;;;;;;1.24;100.00;95451.28;5038806;28;20412;-72
2023/01/09 01:36:11;;;;;;;26.53;21.50;;;;;;;1.16;100.00;95438.25;5043230;28;20563;-72
2023/01/09 01:38:38;;;;;;;22.90;19.40;;;;;;;1.15;100.00;95453.09;5024835;28;20231;-70
2023/01/09 01:41:06;;;;;;;25.00;21.27;;;;;;;1.22;100.00;95453.25;5043048;28;20580;-71
2023/01/09 01:43:49;;;;;;;26.60;21.30;;;;;;;1.17;100.00;95459.94;5040812;28;20607;-70
2023/01/09 01:46:18;;;;;;;22.57;20.10;;;;;;;1.18;100.00;95458.94;5035295;28;20228;-70
2023/01/09 01:48:47;;;;;;;22.10;19.33;;;;;;;1.25;100.00;95468.56;5009144;28;20223;-72
2023/01/09 01:51:17;;;;;;;27.37;19.97;;;;;;;1.15;100.00;95466.13;5046151;28;20227;-71
2023/01/09 01:53:48;;;;;;;25.47;21.37;;;;;;;1.20;100.00;95475.25;5018257;28;20215;-71
2023/01/09 01:56:17;;;;;;;23.20;19.47;;;;;;;1.12;100.00;95463.03;5040815;28;20254;-71
2023/01/09 01:58:46;;;;;;;25.07;19.47;;;;;;;1.08;100.00;95464.34;5039375;28;20404;-71
2023/01/09 02:01:14;;;;;;;26.10;21.37;;;;;;;1.01;100.00;95464.22;5043034;28;20693;-69
2023/01/09 02:03:43;;;;;;;25.47;21.03;;;;;;;0.95;100.00;95470.09;4993455;28;20790;-73
2023/01/09 02:06:12;;;;;;;25.17;20.10;;;;;;;0.94;100.00;95460.63;5034438;28;20210;-73
2023/01/09 02:08:39;;;;;;;25.20;21.50;;;;;;;1.03;100.00;95454.44;5028107;28;20227;-71
2023/01/09 02:11:07;;;;;;;30.27;21.87;;;;;;;0.96;100.00;95453.47;5034215;28;20306;-73
2023/01/09 02:13:37;;;;;;;27.30;22.20;;;;;;;0.96;100.00;95448.25;5037135;28;20213;-72
2023/01/09 02:16:17;;;;;;;26.37;21.13;;;;;;;0.85;100.00;95434.56;5028127;28;20603;-72
2023/01/09 02:18:51;;;;;;;24.03;20.17;;;;;;;0.89;100.00;95444.66;4994916;28;22062;-71
2023/01/09 02:21:26;;;;;;;26.07;20.63;;;;;;;0.83;100.00;95439.13;5040908;28;20207;-72
2023/01/09 02:24:07;;;;;;;27.63;21.87;;;;;;;0.90;100.00;95426.25;5027625;28;20841;-70
2023/01/09 02:26:47;;;;;;;23.77;20.10;;;;;;;0.94;100.00;95424.94;5039982;28;20207;-70
2023/01/09 02:30:00;;;;;;;24.77;19.57;;;;;;;0.98;100.00;95413.19;5049963;28;20219;-71
2023/01/09 02:32:37;;;;;;;26.60;20.43;;;;;;;0.97;100.00;95424.59;5052487;28;20358;-70
2023/01/09 02:35:17;;;;;;;22.57;19.00;;;;;;;0.99;100.00;95420.03;5006584;28;20698;-70
2023/01/09 02:37:49;;;;;;;27.13;19.10;;;;;;;0.95;100.00;95423.97;4981432;28;20214;-70
2023/01/09 02:40:22;;;;;;;27.47;21.63;;;;;;;0.96;100.00;95430.00;5041790;28;20238;-72
2023/01/09 02:42:50;;;;;;;23.07;20.60;;;;;;;0.96;100.00;95428.19;5023355;28;20206;-69
2023/01/09 02:45:20;;;;;;;27.70;19.43;;;;;;;0.94;100.00;95424.94;5031280;28;20206;-69
2023/01/09 02:47:47;;;;;;;25.33;19.60;;;;;;;0.93;100.00;95420.72;5047321;28;20202;-69
2023/01/09 02:50:17;;;;;;;23.57;18.77;;;;;;;0.88;100.00;95420.41;5043527;28;20227;-69
2023/01/09 02:52:56;;;;;;;25.43;18.97;;;;;;;0.89;100.00;95424.63;5007679;28;20951;-71
2023/01/09 02:55:34;;;;;;;24.70;18.67;;;;;;;0.97;100.00;95429.03;5048778;28;20195;-71
2023/01/09 02:58:07;;;;;;;27.13;19.27;;;;;;;1.02;100.00;95431.94;5048056;28;20229;-70
2023/01/09 03:00:43;;;;;;;24.93;18.37;;;;;;;0.97;100.00;95424.59;5024933;28;20203;-69
2023/01/09 03:03:12;;;;;;;26.67;18.80;;;;;;;1.03;100.00;95430.97;5049391;28;21154;-69
2023/01/09 03:05:43;;;;;;;26.57;19.77;;;;;;;1.06;100.00;95432.41;5051941;28;20221;-71
2023/01/09 03:08:14;;;;;;;26.20;18.83;;;;;;;1.02;100.00;95434.56;5014006;28;20774;-69
2023/01/09 03:10:46;;;;;;;21.53;18.13;;;;;;;1.01;100.00;95419.88;5053152;28;20202;-70
2023/01/09 03:13:16;;;;;;;22.00;17.27;;;;;;;0.96;100.00;95415.16;5040905;28;20995;-69
2023/01/09 03:15:48;;;;;;;21.47;17.10;;;;;;;1.00;100.00;95426.09;5035324;28;20237;-70
2023/01/09 03:18:17;;;;;;;21.07;17.07;;;;;;;1.05;100.00;95423.78;5052811;28;20218;-69
2023/01/09 03:20:46;;;;;;;25.57;18.37;;;;;;;1.05;100.00;95423.78;5057013;28;20286;-70
2023/01/09 03:23:13;;;;;;;20.93;16.50;;;;;;;1.17;100.00;95419.03;5017479;28;20207;-70
2023/01/09 03:25:41;;;;;;;22.83;18.10;;;;;;;1.11;100.00;95415.28;5052202;28;20207;-71
2023/01/09 03:28:16;;;;;;;23.60;18.27;;;;;;;1.06;100.00;95416.75;5054638;28;20210;-69
2023/01/09 03:30:45;;;;;;;25.40;17.93;;;;;;;1.05;100.00;95422.94;5030776;28;20215;-70
2023/01/09 03:33:13;;;;;;;22.97;17.90;;;;;;;1.11;100.00;95427.50;5037761;28;20972;-69
2023/01/09 03:35:40;;;;;;;26.17;18.63;;;;;;;1.07;100.00;95421.81;5041562;28;20868;-69
2023/01/09 03:38:08;;;;;;;23.13;18.10;;;;;;;1.08;100.00;95418.22;5002122;28;20342;-70
2023/01/09 03:40:36;;;;;;;21.60;17.13;;;;;;;1.10;100.00;95418.03;5033040;28;20203;-70
2023/01/09 03:43:03;;;;;;;20.97;17.00;;;;;;;1.08;100.00;95417.41;5039161;28;20697;-73
2023/01/09 03:45:31;;;;;;;20.73;17.10;;;;;;;1.10;100.00;95411.03;5029585;28;20211;-69
2023/01/09 03:48:00;;;;;;;22.10;17.00;;;;;;;1.14;100.00;95414.94;5031208;28;20290;-70
2023/01/09 03:50:27;;;;;;;23.60;18.17;;;;;;;1.15;100.00;95428.81;5041961;28;20227;-69
2023/01/09 03:52:55;;;;;;;23.73;17.80;;;;;;;1.17;100.00;95412.97;5039334;28;20219;-71
2023/01/09 03:55:22;;;;;;;21.60;17.80;;;;;;;1.15;100.00;95426.19;5012017;28;20215;-70
2023/01/09 03:57:51;;;;;;;20.03;16.93;;;;;;;1.15;100.00;95410.56;5048959;28;21088;-71
2023/01/09 04:00:20;;;;;;;21.83;17.30;;;;;;;1.17;100.00;95413.81;5041395;28;20233;-69
2023/01/09 04:02:48;;;;;;;20.40;17.23;;;;;;;1.18;100.00;95422.44;5011905;28;20968;-71
2023/01/09 04:05:17;;;;;;;26.30;17.37;;;;;;;1.13;100.00;95431.56;5044092;28;20206;-72
2023/01/09 04:07:44;;;;;;;21.10;16.57;;;;;;;1.11;100.00;95415.28;5046097;28;20207;-69
2023/01/09 04:10:12;;;;;;;20.87;17.33;;;;;;;1.18;100.00;95419.81;5014645;28;20272;-71
2023/01/09 04:12:39;;;;;;;25.67;17.53;;;;;;;1.13;100.00;95421.13;5028600;28;20999;-69
2023/01/09 04:15:08;;;;;;;22.20;18.23;;;;;;;1.13;100.00;95413.31;5046392;28;20208;-72
2023/01/09 04:17:35;;;;;;;21.97;17.27;;;;;;;1.14;100.00;95414.94;5029654;28;20207;-72
2023/01/09 04:20:03;;;;;;;22.83;17.80;;;;;;;1.12;100.00;95411.69;5033231;28;20235;-70
2023/01/09 04:22:32;;;;;;;22.87;17.30;;;;;;;1.11;100.00;95415.28;5040444;28;20977;-71
2023/01/09 04:25:00;;;;;;;23.30;17.27;;;;;;;1.09;100.00;95411.19;5047369;28;20622;-69
2023/01/09 04:27:27;;;;;;;21.80;18.17;;;;;;;1.08;100.00;95431.28;5007358;28;20208;-71
2023/01/09 04:29:55;;;;;;;22.13;16.97;;;;;;;1.06;100.00;95424.56;5040440;28;20223;-72
2023/01/09 04:32:23;;;;;;;22.47;17.97;;;;;;;1.06;100.00;95424.56;5033193;28;20230;-67
2023/01/09 04:34:50;;;;;;;20.30;16.70;;;;;;;1.01;100.00;95425.09;5033477;28;20298;-72
2023/01/09 04:37:18;;;;;;;22.60;16.87;;;;;;;1.01;100.00;95427.72;5044835;28;20215;-70
2023/01/09 04:39:47;;;;;;;20.50;17.20;;;;;;;1.03;100.00;95430.97;5049648;28;20214;-71
2023/01/09 04:42:15;;;;;;;23.57;17.73;;;;;;;0.98;100.00;95434.06;5010928;28;20575;-70
2023/01/09 04:44:42;;;;;;;21.87;17.27;;;;;;;1.04;100.00;95440.41;5002390;28;20210;-71
2023/01/09 04:47:12;;;;;;;26.47;18.63;;;;;;;1.06;100.00;95437.63;5033348;28;20209;-71
2023/01/09 04:49:40;;;;;;;20.67;17.63;;;;;;;1.10;100.00;95441.53;5040693;28;20223;-70
2023/01/09 04:52:07;;;;;;;24.13;18.33;;;;;;;1.09;100.00;95432.91;5025705;28;20210;-70
2023/01/09 04:54:35;;;;;;;24.40;17.00;;;;;;;1.09;100.00;95440.72;5031325;28;20227;-71
2023/01/09 04:57:04;;;;;;;19.93;16.47;;;;;;;1.08;100.00;95439.09;5039557;28;20207;-69
2023/01/09 04:59:31;;;;;;;21.77;17.37;;;;;;;1.08;100.00;95435.66;5001266;28;20374;-71
2023/01/09 05:01:59;;;;;;;20.87;17.33;;;;;;;1.11;100.00;95432.72;5046056;28;20293;-70
2023/01/09 05:04:27;;;;;;;21.93;17.57;;;;;;;1.09;100.00;95445.94;5046505;28;20474;-71
2023/01/09 05:06:55;;;;;;;21.57;18.37;;;;;;;1.11;100.00;95451.81;5035050;28;20349;-70
2023/01/09 05:09:22;;;;;;;24.63;18.80;;;;;;;1.12;100.00;95453.44;5025108;28;20222;-71
2023/01/09 05:11:50;;;;;;;21.23;18.97;;;;;;;1.10;100.00;95444.97;5044239;28;20215;-70
2023/01/09 05:14:20;;;;;;;23.73;18.83;;;;;;;1.17;100.00;95457.31;4997359;28;20869;-71
2023/01/09 05:16:47;;;;;;;22.80;18.50;;;;;;;1.19;100.00;95463.19;5043239;28;20203;-70
2023/01/09 05:19:15;;;;;;;22.03;17.73;;;;;;;1.25;100.00;95465.13;5045479;28;20219;-72
2023/01/09 05:21:43;;;;;;;22.57;19.17;;;;;;;1.23;100.00;95470.53;5022233;28;20207;-70
2023/01/09 05:24:10;;;;;;;23.93;19.30;;;;;;;1.28;100.00;95480.44;5045849;28;20203;-71
2023/01/09 05:26:38;;;;;;;20.60;17.47;;;;;;;1.31;100.00;95480.09;5014907;28;20218;-70
2023/01/09 05:29:05;;;;;;;22.57;18.17;;;;;;;1.34;100.00;95485.00;5039456;28;20461;-71
2023/01/09 05:31:34;;;;;;;19.63;16.67;;;;;;;1.37;100.00;95479.47;4986922;28;20222;-71
2023/01/09 05:34:02;;;;;;;19.90;17.80;;;;;;;1.37;100.00;95483.84;5039617;28;20294;-69
2023/01/09 05:36:29;;;;;;;22.97;18.63;;;;;;;1.39;100.00;95489.72;5034980;28;20222;-71
2023/01/09 05:38:57;;;;;;;22.67;18.60;;;;;;;1.42;100.00;95495.41;5033309;28;20258;-68
2023/01/09 05:41:25;;;;;;;24.27;18.90;;;;;;;1.41;100.00;95501.63;5006287;28;20974;-69
2023/01/09 05:43:53;;;;;;;22.97;17.90;;;;;;;1.38;100.00;95499.34;5039340;28;20206;-69
2023/01/09 05:46:20;;;;;;;23.60;19.13;;;;;;;1.37;100.00;95489.06;4995759;28;20204;-70
2023/01/09 05:48:49;;;;;;;20.80;18.53;;;;;;;1.32;100.00;95479.13;5041869;28;20222;-70
2023/01/09 05:51:17;;;;;;;23.47;17.63;;;;;;;1.39;100.00;95480.09;5035819;28;20199;-71
2023/01/09 05:53:44;;;;;;;20.57;17.67;;;;;;;1.37;100.00;95491.69;5021942;28;20247;-71
2023/01/09 05:56:12;;;;;;;23.67;19.47;;;;;;;1.37;100.00;95494.28;5009111;28;20214;-70
2023/01/09 05:58:39;;;;;;;27.23;18.30;;;;;;;1.32;100.00;95494.78;5034312;28;20230;-70
2023/01/09 06:01:07;;;;;;;21.33;18.77;;;;;;;1.32;100.00;95501.81;4997806;28;20718;-68
2023/01/09 06:03:35;;;;;;;25.90;18.60;;;;;;;1.34;100.00;95510.28;5040140;28;20207;-70
2023/01/09 06:06:05;;;;;;;23.17;18.87;;;;;;;1.36;100.00;95521.38;5020621;28;20212;-68
2023/01/09 06:08:32;;;;;;;23.17;19.27;;;;;;;1.37;100.00;95529.03;5031783;28;20747;-70
2023/01/09 06:11:00;;;;;;;22.70;17.67;;;;;;;1.33;100.00;95538.19;5032857;28;20210;-71
2023/01/09 06:13:27;;;;;;;23.47;18.13;;;;;;;1.45;100.00;95546.44;5034462;28;20621;-72
2023/01/09 06:15:55;;;;;;;25.20;19.23;;;;;;;1.44;100.00;95547.44;5017091;28;20211;-70
2023/01/09 06:18:22;;;;;;;20.93;17.60;;;;;;;1.44;100.00;95553.47;4993998;28;20215;-71
2023/01/09 06:20:50;;;;;;;24.17;18.57;;;;;;;1.43;100.00;95556.25;5029557;28;20594;-70
2023/01/09 06:23:19;;;;;;;25.53;19.43;;;;;;;1.43;100.00;95551.03;5037680;28;20420;-68
2023/01/09 06:25:47;;;;;;;26.23;18.87;;;;;;;1.42;100.00;95546.78;5028859;28;20203;-71
2023/01/09 06:28:14;;;;;;;24.33;19.07;;;;;;;1.45;100.00;95546.44;5029165;28;20215;-70
2023/01/09 06:30:42;;;;;;;28.00;20.13;;;;;;;1.42;100.00;95538.97;5040109;28;20528;-71
2023/01/09 06:33:09;;;;;;;23.80;18.87;;;;;;;1.44;100.00;95548.25;4997248;28;20219;-70
2023/01/09 06:35:37;;;;;;;23.83;18.97;;;;;;;1.42;100.00;95545.00;5024445;28;20433;-71
2023/01/09 06:38:05;;;;;;;20.63;18.40;;;;;;;1.47;100.00;95546.31;5033939;28;20259;-70
2023/01/09 06:40:33;;;;;;;24.73;19.67;;;;;;;1.46;100.00;95542.88;5030989;28;20211;-70
2023/01/09 06:43:01;;;;;;;23.43;19.00;;;;;;;1.47;100.00;95547.09;5019145;28;20429;-70
2023/01/09 06:45:29;;;;;;;22.33;19.67;;;;;;;1.39;100.00;95528.84;5044791;28;20421;-70
2023/01/09 06:47:56;;;;;;;23.70;18.60;;;;;;;1.48;100.00;95548.72;4999108;28;20217;-70
2023/01/09 06:50:24;;;;;;;23.83;20.03;;;;;;;1.39;100.00;95547.94;5040156;28;21212;-70
2023/01/09 06:52:51;;;;;;;24.57;19.50;;;;;;;1.40;100.00;95549.59;4972219;28;20751;-70
2023/01/09 06:55:19;;;;;;;22.63;18.70;;;;;;;1.42;100.00;95546.78;5040491;28;20281;-73
2023/01/09 06:57:48;;;;;;;25.00;20.23;;;;;;;1.44;100.00;95553.47;5028959;28;20602;-71
2023/01/09 07:00:16;;;;;;;26.83;19.57;;;;;;;1.48;100.00;95561.78;5018921;28;20231;-70
2023/01/09 07:02:44;;;;;;;26.47;19.17;;;;;;;1.52;100.00;95554.44;5040443;28;20207;-73
2023/01/09 07:05:12;;;;;;;26.67;20.60;;;;;;;1.44;100.00;95543.03;5023545;28;20221;-71
2023/01/09 07:07:40;;;;;;;24.03;19.87;;;;;;;1.53;100.00;95554.28;4995557;28;22124;-70
2023/01/09 07:10:09;;;;;;;24.77;19.93;;;;;;;1.56;100.00;95560.94;5039049;28;20224;-70
2023/01/09 07:12:36;;;;;;;22.80;19.10;;;;;;;1.55;100.00;95560.16;5040500;28;20409;-71
2023/01/09 07:15:06;;;;;;;20.97;18.77;;;;;;;1.60;100.00;95562.25;5028819;28;20235;-71
2023/01/09 07:17:34;;;;;;;27.27;20.13;;;;;;;1.65;100.00;95564.38;5019424;28;20554;-72
2023/01/09 07:20:02;;;;;;;23.13;18.73;;;;;;;1.68;100.00;95561.41;5031953;28;20761;-71
2023/01/09 07:22:29;;;;;;;24.80;18.63;;;;;;;1.74;100.00;95576.41;4993778;28;21645;-72
2023/01/09 07:24:57;;;;;;;23.23;19.67;;;;;;;1.72;100.00;95579.19;5043098;28;20306;-73
2023/01/09 07:27:25;;;;;;;26.67;20.20;;;;;;;1.78;100.00;95580.31;5045293;28;20616;-73
2023/01/09 07:29:52;;;;;;;21.87;17.57;;;;;;;1.81;100.00;95582.56;5011580;28;20891;-72
2023/01/09 07:32:21;;;;;;;23.07;19.03;;;;;;;1.82;100.00;95589.44;5046690;28;20390;-72
2023/01/09 07:34:50;;;;;;;23.87;20.37;;;;;;;1.84;100.00;95584.84;5033326;28;20222;-70
2023/01/09 07:37:17;;;;;;;22.17;19.77;;;;;;;1.79;100.00;95579.31;5044288;28;20207;-70
2023/01/09 07:39:45;;;;;;;24.37;20.10;;;;;;;1.86;100.00;95600.38;5003974;28;20556;-73
2023/01/09 07:42:13;;;;;;;23.87;19.13;;;;;;;1.90;100.00;95601.66;5041198;28;20212;-71
2023/01/09 07:44:41;;;;;;;21.67;18.43;;;;;;;1.88;100.00;95612.25;5028974;28;23771;-73
2023/01/09 07:47:08;;;;;;;21.87;18.43;;;;;;;1.92;100.00;95612.75;5033311;28;20203;-71
2023/01/09 07:49:37;;;;;;;23.77;19.60;;;;;;;1.93;100.00;95622.22;5042294;28;20460;-71
2023/01/09 07:52:05;;;;;;;19.07;16.97;;;;;;;2.01;100.00;95629.22;5022437;28;20223;-70
2023/01/09 07:54:32;;;;;;;21.27;17.90;;;;;;;2.05;100.00;95627.06;4999512;28;21624;-73
2023/01/09 07:57:00;;;;;;;21.13;17.40;;;;;;;2.19;100.00;95636.81;5041909;28;20866;-69
2023/01/09 07:59:28;;;;;;;23.73;19.67;;;;;;;2.31;100.00;95655.56;5041693;28;20222;-73
2023/01/09 08:01:56;;;;;;;20.40;17.97;;;;;;;2.38;100.00;95661.75;5025929;28;20211;-69
2023/01/09 08:04:23;;;;;;;20.83;15.90;;;;;;;2.43;100.00;95659.44;5041173;28;20187;-72
2023/01/09 08:06:52;;;;;;;8.87;8.07;;;;;;;2.91;100.00;95670.78;5030087;28;20218;-71
2023/01/09 08:09:20;;;;;;;5.93;5.43;;;;;;;3.26;100.00;95677.25;5041071;28;20226;-70
2023/01/09 08:11:49;;;;;;;4.50;4.10;;;;;;;3.42;100.00;95673.69;5001348;28;20579;-71
2023/01/09 08:14:17;;;;;;;3.43;3.23;;;;;;;3.53;100.00;95682.94;5041796;28;20235;-70
2023/01/09 08:16:45;;;;;;;2.93;2.73;;;;;;;3.57;100.00;95673.75;5028595;28;20213;-71
2023/01/09 08:19:13;;;;;;;2.33;2.13;;;;;;;3.58;100.00;95679.78;5043946;28;20226;-70
2023/01/09 08:21:43;;;;;;;2.17;2.07;;;;;;;3.61;100.00;95687.31;5024647;28;20788;-70
2023/01/09 08:24:12;;;;;;;1.50;1.50;;;;;;;3.66;100.00;95690.19;5041705;28;20329;-70
2023/01/09 08:26:40;;;;;;;1.70;1.70;;;;;;;3.66;100.00;95702.47;4997514;28;20779;-70
2023/01/09 08:29:07;;;;;;;1.40;1.40;;;;;;;3.67;100.00;95718.03;5041673;28;20804;-70
2023/01/09 08:31:35;;;;;;;1.33;1.33;;;;;;;3.62;100.00;95713.31;5025717;28;21167;-71
2023/01/09 08:34:02;;;;;;;1.73;1.63;;;;;;;3.67;100.00;95725.88;5045188;28;20294;-71
2023/01/09 08:36:30;;;;;;;2.00;1.90;;;;;;;3.72;100.00;95730.56;5041837;28;20225;-71
2023/01/09 08:38:58;;;;;;;1.37;1.37;;;;;;;3.76;100.00;95724.00;5028511;28;20251;-70
2023/01/09 08:47:06;;;;;;;1.20;1.20;;;;;;;4.10;100.00;95750.72;5039222;28;20207;-72
2023/01/09 08:49:35;;;;;;;1.23;1.23;;;;;;;4.11;100.00;95740.06;5033449;28;20234;-74
2023/01/09 08:52:03;;;;;;;1.77;1.00;;;;;;;4.13;100.00;95745.94;5039948;28;20222;-71
2023/01/09 08:54:30;;;;;;;0.97;0.97;;;;;;;4.07;100.00;95736.16;5027180;28;20661;-72
2023/01/09 08:56:59;;;;;;;2.33;1.20;;;;;;;4.23;100.00;95758.00;5047360;28;20242;-70
2023/01/09 08:59:27;;;;;;;1.70;1.60;;;;;;;4.18;100.00;95755.88;4958605;28;20228;-71
2023/01/09 09:01:54;;;;;;;3.93;1.47;;;;;;;4.12;100.00;95756.59;5025091;28;20199;-70
2023/01/09 09:04:22;;;;;;;1.10;1.00;;;;;;;4.13;100.00;95753.78;5043491;28;20214;-72
2023/01/09 09:06:50;;;;;;;1.00;1.00;;;;;;;4.12;100.00;95757.41;5045655;28;20203;-72
2023/01/09 09:09:18;;;;;;;1.17;1.10;;;;;;;4.12;100.00;95759.22;5027294;28;20345;-71
2023/01/09 09:11:45;;;;;;;1.13;1.10;;;;;;;4.12;100.00;95754.78;5047098;28;20783;-73
2023/01/09 09:17:00;;;;;;;0.83;0.83;;;;;;;4.12;100.00;95764.47;5043252;28;20677;-72
2023/01/09 09:19:28;;;;;;;1.47;1.07;;;;;;;4.14;100.00;95765.09;5044876;28;20223;-74
2023/01/09 09:21:55;;;;;;;1.10;1.10;;;;;;;4.18;100.00;95769.00;5041782;28;20200;-74
2023/01/09 09:24:23;;;;;;;4.33;1.13;;;;;;;4.22;100.00;95772.88;5027468;28;20219;-69
2023/01/09 09:26:50;;;;;;;1.00;1.00;;;;;;;4.19;100.00;95766.22;5046889;28;20200;-72
2023/01/09 09:29:20;;;;;;;3.13;1.07;;;;;;;4.20;100.00;95767.00;5014742;28;20899;-70
2023/01/09 09:31:48;;;;;;;3.00;2.23;;;;;;;4.19;100.00;95773.25;5024514;28;20211;-69
2023/01/09 09:34:16;;;;;;;2.13;1.40;;;;;;;4.20;100.00;95774.88;5044885;28;20207;-69
2023/01/09 09:36:43;;;;;;;1.47;1.30;;;;;;;4.22;100.00;95766.84;5042276;28;20310;-70
2023/01/09 09:39:11;;;;;;;1.37;1.27;;;;;;;4.31;100.00;95768.38;5040122;28;20226;-71
2023/01/09 09:45:06;;;;;;;1.33;1.30;;;;;;;4.27;100.00;95778.41;5044401;28;20210;-71
2023/01/09 09:47:42;;;;;;;1.30;1.20;;;;;;;4.24;100.00;95764.84;5010148;28;20279;-71
2023/01/09 09:50:27;;;;;;;2.77;1.53;;;;;;;4.29;100.00;95775.63;5046174;28;20227;-70
2023/01/09 09:53:00;;;;;;;3.63;1.50;;;;;;;4.31;100.00;95774.44;5037722;28;20203;-71
2023/01/09 09:55:35;;;;;;;1.37;1.10;;;;;;;4.32;100.00;95773.44;5021716;28;20257;-71
2023/01/09 09:58:05;;;;;;;2.03;1.80;;;;;;;4.37;100.00;95767.66;5039561;28;20234;-70
2023/01/09 10:00:37;;;;;;;4.03;3.23;;;;;;;4.47;100.00;95757.72;4989841;28;22473;-73
2023/01/09 10:03:06;;;;;;;3.07;1.83;;;;;;;4.64;100.00;95768.03;5028156;28;20208;-70
2023/01/09 10:05:35;;;;;;;2.63;1.47;;;;;;;4.48;100.00;95761.16;5031719;28;20780;-71
2023/01/09 10:08:06;;;;;;;5.17;1.90;;;;;;;4.46;100.00;95757.91;5021964;28;20218;-68
2023/01/09 10:10:44;;;;;;;2.97;1.67;;;;;;;4.45;100.00;95764.16;5024199;28;20214;-71
2023/01/09 10:16:07;;;;;;;3.27;2.53;;;;;;;4.51;100.00;95762.59;4967316;28;20692;-71
2023/01/09 10:18:44;;;;;;;1.77;1.33;;;;;;;4.59;100.00;95755.47;5034085;28;20228;-71
2023/01/09 10:21:16;;;;;;;4.13;1.30;;;;;;;4.77;100.00;95747.22;5025995;28;20574;-73
2023/01/09 10:24:05;;;;;;;1.30;1.30;;;;;;;4.84;100.00;95747.31;5029516;28;20246;-71
2023/01/09 10:26:40;;;;;;;4.27;1.60;;;;;;;4.88;100.00;95750.38;5023538;28;20227;-71
2023/01/09 10:29:15;;;;;;;3.80;2.63;;;;;;;4.86;100.00;95761.06;5033097;28;20725;-73
2023/01/09 10:31:54;;;;;;;1.47;1.30;;;;;;;4.84;100.00;95776.19;4984364;28;20296;-72
2023/01/09 10:34:31;;;;;;;2.60;2.40;;;;;;;4.83;100.00;95771.94;5024616;28;20229;-72
2023/01/09 10:37:02;;;;;;;3.63;1.60;;;;;;;4.71;100.00;95771.56;5038137;28;20254;-72
2023/01/09 10:39:34;;;;;;;1.93;1.53;;;;;;;4.69;100.00;95770.94;5029528;28;20714;-71
2023/01/09 10:42:05;;;;;;;4.20;1.57;;;;;;;4.59;100.00;95773.03;5024963;28;20208;-73
2023/01/09 10:44:36;;;;;;;3.57;1.97;;;;;;;4.60;100.00;95774.66;5042162;28;20211;-71
2023/01/09 10:47:10;;;;;;;3.37;1.40;;;;;;;4.67;100.00;95772.09;4997547;28;20203;-71
2023/01/09 10:49:38;;;;;;;1.57;1.40;;;;;;;4.67;100.00;95769.47;5041466;28;20218;-70
2023/01/09 10:52:15;;;;;;;3.50;2.00;;;;;;;4.69;100.00;95775.34;5040091;28;20611;-71
2023/01/09 10:54:56;;;;;;;2.20;1.30;;;;;;;4.74;100.00;95771.19;5032232;28;20682;-71
2023/01/09 10:57:34;;;;;;;1.93;1.60;;;;;;;4.86;100.00;95774.19;5029184;28;20218;-73
2023/01/09 11:00:01;;;;;;;1.77;1.67;;;;;;;4.58;100.00;95771.41;5040403;28;20226;-71
2023/01/09 11:02:32;;;;;;;1.87;1.30;;;;;;;4.75;100.00;95775.44;5002457;28;20228;-72
2023/01/09 11:04:59;;;;;;;3.03;2.10;;;;;;;4.70;100.00;95769.09;5040048;28;20429;-74
2023/01/09 11:07:29;;;;;;;3.80;1.77;;;;;;;4.75;100.00;95772.81;5005058;28;20200;-69
2023/01/09 11:09:58;;;;;;;2.53;2.07;;;;;;;4.80;100.00;95771.47;5042965;28;20325;-69
2023/01/09 11:12:28;;;;;;;2.07;1.40;;;;;;;4.79;100.00;95765.41;5043444;28;20260;-70
2023/01/09 11:15:18;;;;;;;3.80;1.90;;;;;;;4.78;100.00;95772.47;5041078;28;20209;-70
2023/01/09 11:17:47;;;;;;;3.80;1.80;;;;;;;4.75;100.00;95766.78;5045672;28;20421;-71
2023/01/09 11:20:17;;;;;;;3.70;1.43;;;;;;;4.85;100.00;95782.22;5044096;28;22069;-70
2023/01/09 11:22:47;;;;;;;3.03;1.60;;;;;;;5.17;100.00;95780.19;4998013;28;22698;-71
2023/01/09 11:25:16;;;;;;;3.30;1.70;;;;;;;5.28;100.00;95778.91;5041815;28;20199;-71
2023/01/09 11:27:44;;;;;;;1.60;1.50;;;;;;;5.16;100.00;95782.03;5045845;28;20346;-72
2023/01/09 11:30:25;;;;;;;2.00;1.90;;;;;;;5.16;100.00;95782.03;5044878;28;20528;-72
2023/01/09 11:32:55;;;;;;;2.73;1.33;;;;;;;4.96;100.00;95784.41;5045009;28;20710;-71
2023/01/09 11:35:26;;;;;;;4.00;1.63;;;;;;;4.95;100.00;95793.28;5046457;28;20209;-70
2023/01/09 11:38:06;;;;;;;1.47;1.40;;;;;;;5.16;100.00;95795.16;5038387;28;20249;-72
2023/01/09 11:40:38;;;;;;;1.20;1.20;;;;;;;5.10;100.00;95785.34;4998214;28;20211;-72
2023/01/09 11:43:14;;;;;;;1.17;1.07;;;;;;;5.06;100.00;95776.22;5045554;28;20209;-70
2023/01/09 11:45:47;;;;;;;1.07;1.07;;;;;;;5.14;100.00;95788.44;5037774;28;20587;-70
2023/01/09 11:48:32;;;;;;;1.20;1.10;;;;;;;4.92;100.00;95781.31;5041035;28;20254;-71
2023/01/09 11:51:03;;;;;;;2.27;1.17;;;;;;;4.77;100.00;95776.09;5047868;28;20319;-71